createdAt,value
2023-02-19T00:01:57.235Z,10.19
2023-02-19T00:04:24.888Z,10.47
2023-02-19T00:06:52.198Z,10.35
2023-02-19T00:09:19.781Z,10.41
2023-02-19T00:11:48.042Z,10.64
2023-02-19T00:14:18.035Z,11.00
2023-02-19T00:16:46.327Z,11.03
2023-02-19T00:19:16.595Z,11.08
2023-02-19T00:21:44.126Z,11.13
2023-02-19T00:24:13.455Z,11.28
2023-02-19T00:26:42.430Z,11.26
2023-02-19T00:29:14.468Z,11.09
2023-02-19T00:31:42.413Z,11.38
2023-02-19T00:34:10.817Z,11.26
2023-02-19T00:36:40.452Z,11.07
2023-02-19T00:39:09.076Z,10.77
2023-02-19T00:41:36.369Z,10.52
2023-02-19T00:44:06.522Z,10.62
2023-02-19T00:46:36.372Z,10.68
2023-02-19T00:49:05.396Z,10.67
2023-02-19T00:51:35.913Z,10.68
2023-02-19T00:54:04.485Z,10.96
2023-02-19T00:56:31.779Z,10.89
2023-02-19T00:58:59.077Z,10.92
2023-02-19T01:01:26.775Z,10.88
2023-02-19T01:03:54.119Z,11.02
2023-02-19T01:06:21.864Z,10.93
2023-02-19T01:08:50.205Z,10.96
2023-02-19T01:11:18.687Z,11.08
2023-02-19T01:13:46.136Z,11.35
2023-02-19T01:16:19.749Z,11.35
2023-02-19T01:18:47.692Z,11.39
2023-02-19T01:21:18.414Z,11.35
2023-02-19T01:23:46.274Z,11.47
2023-02-19T01:26:17.101Z,11.33
2023-02-19T01:28:45.068Z,11.27
2023-02-19T01:31:15.575Z,11.27
2023-02-19T01:33:48.238Z,11.43
2023-02-19T01:36:16.134Z,11.31
2023-02-19T01:38:43.746Z,11.28
2023-02-19T01:41:14.334Z,11.21
2023-02-19T01:44:05.249Z,11.47
2023-02-19T01:46:34.443Z,11.27
2023-02-19T01:49:12.528Z,11.27
2023-02-19T01:51:44.966Z,11.32
2023-02-19T01:54:15.669Z,11.36
2023-02-19T01:56:46.094Z,11.32
2023-02-19T01:59:14.719Z,11.25
2023-02-19T02:01:42.209Z,11.18
2023-02-19T02:04:10.010Z,11.38
2023-02-19T02:06:49.307Z,11.31
2023-02-19T02:09:19.350Z,11.27
2023-02-19T02:11:50.038Z,11.20
2023-02-19T02:14:20.214Z,11.32
2023-02-19T02:17:12.130Z,11.12
2023-02-19T02:19:39.468Z,11.17
2023-02-19T02:22:09.547Z,11.12
2023-02-19T02:24:43.093Z,11.35
2023-02-19T02:27:13.409Z,11.16
2023-02-19T02:29:59.251Z,11.04
2023-02-19T02:32:33.622Z,11.14
2023-02-19T02:35:10.096Z,11.23
2023-02-19T02:37:42.279Z,11.10
2023-02-19T02:40:11.309Z,11.10
2023-02-19T02:42:40.376Z,11.17
2023-02-19T02:45:23.881Z,11.39
2023-02-19T02:47:53.566Z,11.40
2023-02-19T02:50:27.415Z,11.12
2023-02-19T02:53:07.481Z,11.22
2023-02-19T02:55:39.790Z,11.25
2023-02-19T02:58:08.583Z,11.16
2023-02-19T03:00:38.142Z,11.17
2023-02-19T03:03:06.430Z,11.31
2023-02-19T03:05:34.262Z,11.15
2023-02-19T03:08:22.015Z,11.12
2023-02-19T03:11:15.551Z,11.05
2023-02-19T03:13:42.979Z,11.28
2023-02-19T03:16:16.824Z,11.22
2023-02-19T03:18:46.885Z,11.03
2023-02-19T03:21:19.305Z,11.04
2023-02-19T03:23:48.118Z,10.93
2023-02-19T03:26:17.418Z,10.88
2023-02-19T03:28:47.285Z,10.82
2023-02-19T03:31:19.545Z,10.70
2023-02-19T03:33:53.532Z,10.82
2023-02-19T03:36:23.340Z,10.66
2023-02-19T03:38:56.736Z,10.88
2023-02-19T03:41:26.760Z,10.71
2023-02-19T03:44:03.095Z,10.77
2023-02-19T03:47:23.709Z,10.67
2023-02-19T03:49:51.614Z,10.67
2023-02-19T03:52:28.688Z,10.66
2023-02-19T03:55:16.690Z,10.75
2023-02-19T03:57:56.447Z,10.73
2023-02-19T04:00:38.810Z,10.74
2023-02-19T04:03:09.668Z,10.73
2023-02-19T04:05:42.585Z,10.73
2023-02-19T04:08:16.912Z,10.59
2023-02-19T04:10:46.971Z,10.63
2023-02-19T04:13:42.522Z,10.67
2023-02-19T04:16:15.521Z,10.68
2023-02-19T04:18:47.613Z,10.51
2023-02-19T04:21:16.141Z,10.54
2023-02-19T04:23:45.582Z,10.73
2023-02-19T04:26:15.133Z,10.77
2023-02-19T04:28:42.636Z,10.65
2023-02-19T04:31:11.117Z,10.64
2023-02-19T04:33:42.967Z,10.59
2023-02-19T04:36:11.038Z,10.53
2023-02-19T04:38:38.303Z,10.47
2023-02-19T04:41:06.011Z,10.46
2023-02-19T04:43:33.939Z,10.46
2023-02-19T04:46:02.456Z,10.47
2023-02-19T04:48:30.482Z,10.41
2023-02-19T04:51:00.083Z,12.14
2023-02-19T04:53:28.115Z,13.10
2023-02-19T04:55:56.181Z,12.40
2023-02-19T04:58:24.155Z,11.50
2023-02-19T05:00:53.096Z,11.12
2023-02-19T05:03:20.889Z,10.84
2023-02-19T05:05:48.988Z,10.70
2023-02-19T05:08:16.270Z,10.46
2023-02-19T05:10:43.558Z,10.29
2023-02-19T05:13:10.909Z,10.21
2023-02-19T05:15:38.401Z,10.09
2023-02-19T05:18:06.197Z,10.03
2023-02-19T05:20:33.588Z,10.01
2023-02-19T05:23:00.837Z,9.89
2023-02-19T05:25:28.138Z,10.05
2023-02-19T05:27:55.482Z,9.99
2023-02-19T05:30:22.867Z,9.91
2023-02-19T05:32:50.305Z,9.86
2023-02-19T05:35:17.738Z,9.93
2023-02-19T05:37:45.035Z,9.89
2023-02-19T05:40:12.315Z,9.94
2023-02-19T05:42:39.563Z,10.15
2023-02-19T05:45:07.842Z,10.34
2023-02-19T05:47:37.893Z,10.41
2023-02-19T05:50:05.652Z,10.43
2023-02-19T05:52:33.131Z,10.51
2023-02-19T05:55:00.464Z,10.38
2023-02-19T05:57:27.796Z,10.50
2023-02-19T05:59:56.741Z,10.44
2023-02-19T06:02:27.008Z,10.67
2023-02-19T06:04:54.386Z,10.82
2023-02-19T06:07:21.664Z,10.96
2023-02-19T06:09:50.809Z,11.29
2023-02-19T06:12:22.253Z,11.28
2023-02-19T06:14:49.692Z,11.61
2023-02-19T06:17:19.845Z,12.44
2023-02-19T06:19:47.143Z,13.18
2023-02-19T06:22:15.574Z,13.59
2023-02-19T06:24:42.947Z,14.15
2023-02-19T06:27:10.409Z,14.00
2023-02-19T06:29:37.704Z,13.81
2023-02-19T06:32:06.701Z,13.99
2023-02-19T06:34:35.141Z,14.10
2023-02-19T06:37:02.906Z,13.86
2023-02-19T06:39:30.252Z,13.51
2023-02-19T06:41:58.185Z,13.69
2023-02-19T06:44:25.574Z,13.83
2023-02-19T06:46:55.320Z,14.38
2023-02-19T06:49:25.442Z,14.51
2023-02-19T06:51:52.931Z,14.93
2023-02-19T06:54:20.177Z,15.89
2023-02-19T06:56:47.493Z,15.20
2023-02-19T06:59:16.132Z,14.74
2023-02-19T07:01:43.924Z,14.76
2023-02-19T07:04:19.391Z,14.00
2023-02-19T07:06:46.757Z,14.01
2023-02-19T07:09:14.233Z,13.72
2023-02-19T07:11:41.514Z,13.17
2023-02-19T07:14:16.132Z,13.30
2023-02-19T07:16:45.949Z,13.24
2023-02-19T07:19:14.625Z,13.05
2023-02-19T07:21:42.599Z,13.11
2023-02-19T07:24:10.201Z,14.03
2023-02-19T07:26:40.692Z,13.91
2023-02-19T07:29:11.707Z,14.29
2023-02-19T07:31:43.243Z,14.49
2023-02-19T07:34:10.597Z,14.40
2023-02-19T07:36:37.947Z,14.65
2023-02-19T07:39:05.497Z,14.59
2023-02-19T07:41:33.150Z,14.87
2023-02-19T07:44:00.576Z,15.53
2023-02-19T07:46:29.233Z,16.58
2023-02-19T07:48:57.568Z,16.57
2023-02-19T07:51:30.432Z,16.78
2023-02-19T07:54:00.741Z,16.79
2023-02-19T07:56:28.196Z,17.69
2023-02-19T07:58:59.755Z,16.23
2023-02-19T08:01:29.813Z,17.22
2023-02-19T08:03:57.861Z,17.79
2023-02-19T08:06:25.422Z,18.22
2023-02-19T08:08:52.758Z,17.59
2023-02-19T08:11:20.093Z,16.85
2023-02-19T08:13:52.073Z,17.05
2023-02-19T08:16:33.084Z,17.07
2023-02-19T08:19:07.768Z,16.65
2023-02-19T08:21:35.232Z,16.61
2023-02-19T08:24:02.623Z,16.61
2023-02-19T08:26:29.851Z,16.67
2023-02-19T08:28:57.091Z,16.49
2023-02-19T08:31:25.059Z,16.42
2023-02-19T08:33:52.798Z,15.82
2023-02-19T08:36:20.244Z,16.38
2023-02-19T08:38:47.506Z,15.94
2023-02-19T08:41:18.349Z,15.82
2023-02-19T08:43:45.639Z,15.91
2023-02-19T08:46:13.006Z,16.45
2023-02-19T08:48:40.816Z,17.05
2023-02-19T08:51:11.125Z,16.81
2023-02-19T08:53:40.342Z,16.84
2023-02-19T08:56:15.957Z,16.98
2023-02-19T08:58:43.888Z,16.45
2023-02-19T09:01:16.344Z,16.65
2023-02-19T09:03:43.952Z,16.96
2023-02-19T09:06:15.141Z,17.38
2023-02-19T09:08:42.580Z,17.11
2023-02-19T09:11:10.234Z,17.33
2023-02-19T09:13:37.780Z,16.97
2023-02-19T09:16:05.529Z,17.32
2023-02-19T09:18:33.318Z,17.37
2023-02-19T09:21:03.463Z,17.42
2023-02-19T09:23:33.222Z,17.19
2023-02-19T09:26:01.466Z,17.71
2023-02-19T09:28:28.834Z,17.99
2023-02-19T09:30:56.282Z,17.56
2023-02-19T09:33:23.650Z,17.20
2023-02-19T09:35:50.942Z,18.02
2023-02-19T09:38:18.266Z,18.20
2023-02-19T09:40:45.783Z,17.49
2023-02-19T09:43:18.704Z,17.48
2023-02-19T09:45:47.868Z,17.44
2023-02-19T09:48:15.319Z,16.90
2023-02-19T09:50:47.881Z,16.45
2023-02-19T09:53:24.430Z,16.67
2023-02-19T09:55:53.253Z,16.92
2023-02-19T09:58:32.194Z,17.33
2023-02-19T10:01:05.989Z,17.47
2023-02-19T10:03:37.852Z,17.40
2023-02-19T10:06:20.041Z,17.50
2023-02-19T10:09:25.678Z,17.23
2023-02-19T10:11:54.890Z,17.46
2023-02-19T10:14:34.028Z,17.44
2023-02-19T10:17:05.106Z,17.82
2023-02-19T10:19:34.285Z,17.62
2023-02-19T10:22:04.124Z,17.61
2023-02-19T10:24:31.902Z,17.88
2023-02-19T10:26:59.204Z,18.08
2023-02-19T10:29:26.603Z,17.82
2023-02-19T10:32:16.208Z,18.03
2023-02-19T10:34:43.618Z,17.78
2023-02-19T10:37:15.691Z,18.17
2023-02-19T10:39:50.809Z,17.90
2023-02-19T10:42:23.286Z,18.37
2023-02-19T10:45:01.288Z,18.27
2023-02-19T10:47:31.778Z,18.44
2023-02-19T10:50:02.137Z,18.35
2023-02-19T10:52:34.448Z,18.19
2023-02-19T10:55:27.320Z,18.39
2023-02-19T10:57:55.572Z,19.03
2023-02-19T11:00:26.222Z,18.90
2023-02-19T11:03:14.030Z,18.55
2023-02-19T11:06:00.663Z,19.01
2023-02-19T11:08:28.528Z,18.81
2023-02-19T11:10:56.499Z,18.79
2023-02-19T11:13:31.410Z,18.56
2023-02-19T11:16:00.032Z,19.01
2023-02-19T11:18:36.729Z,19.10
2023-02-19T11:21:06.373Z,18.62
2023-02-19T11:23:44.594Z,18.38
2023-02-19T11:26:25.526Z,18.61
2023-02-19T11:29:01.194Z,18.62
2023-02-19T11:31:30.825Z,18.43
2023-02-19T11:34:00.801Z,18.29
2023-02-19T11:36:31.017Z,18.73
2023-02-19T11:39:18.387Z,18.70
2023-02-19T11:42:23.867Z,18.73
2023-02-19T11:44:59.924Z,18.93
2023-02-19T11:47:51.514Z,19.20
2023-02-19T11:50:24.971Z,18.90
2023-02-19T11:53:17.267Z,19.28
2023-02-19T11:56:07.770Z,19.28
2023-02-19T11:59:04.873Z,18.72
2023-02-19T12:01:58.475Z,17.91
2023-02-19T12:04:50.247Z,17.54
2023-02-19T12:07:54.949Z,18.32
2023-02-19T12:10:33.782Z,18.36
2023-02-19T12:13:31.553Z,18.16
2023-02-19T12:16:07.949Z,18.49
2023-02-19T12:18:44.376Z,17.76
2023-02-19T12:21:51.781Z,17.62
2023-02-19T12:24:58.496Z,17.88
2023-02-19T12:28:16.759Z,18.73
2023-02-19T12:31:07.337Z,18.70
2023-02-19T12:33:52.498Z,18.48
2023-02-19T12:36:53.399Z,18.78
2023-02-19T12:39:23.233Z,18.99
2023-02-19T12:42:23.373Z,18.76
2023-02-19T12:45:07.211Z,18.49
2023-02-19T12:47:42.425Z,18.83
2023-02-19T12:50:24.945Z,18.45
2023-02-19T12:53:33.946Z,18.46
2023-02-19T12:56:08.636Z,18.16
2023-02-19T12:58:43.925Z,17.92
2023-02-19T13:01:18.928Z,17.67
2023-02-19T13:03:53.895Z,17.54
2023-02-19T13:06:43.009Z,17.58
2023-02-19T13:09:23.476Z,17.41
2023-02-19T13:11:56.229Z,17.29
2023-02-19T13:14:47.094Z,17.35
2023-02-19T13:17:43.867Z,17.48
2023-02-19T13:20:32.755Z,17.38
2023-02-19T13:23:14.024Z,17.30
2023-02-19T13:25:57.277Z,17.08
2023-02-19T13:28:52.820Z,17.25
2023-02-19T13:31:38.252Z,17.11
2023-02-19T13:34:42.170Z,17.03
2023-02-19T13:37:16.883Z,17.25
2023-02-19T13:39:51.070Z,17.08
2023-02-19T13:42:26.013Z,16.99
2023-02-19T13:44:57.949Z,16.91
2023-02-19T13:48:07.853Z,17.21
2023-02-19T13:50:35.125Z,17.10
2023-02-19T13:53:40.669Z,16.83
2023-02-19T13:56:32.512Z,16.98
2023-02-19T13:59:23.944Z,16.86
2023-02-19T14:01:54.381Z,16.75
2023-02-19T14:04:42.621Z,16.80
2023-02-19T14:07:49.821Z,16.78
2023-02-19T14:10:56.421Z,16.63
2023-02-19T14:13:56.530Z,16.68
2023-02-19T14:16:35.197Z,16.52
2023-02-19T14:19:02.550Z,16.71
2023-02-19T14:21:38.260Z,16.61
2023-02-19T14:24:12.027Z,16.49
2023-02-19T14:26:49.435Z,16.49
2023-02-19T14:29:17.440Z,16.62
2023-02-19T14:31:46.732Z,16.39
2023-02-19T14:34:18.036Z,16.33
2023-02-19T14:37:06.121Z,16.54
2023-02-19T14:39:36.787Z,16.59
2023-02-19T14:42:15.141Z,16.38
2023-02-19T14:44:55.485Z,16.22
2023-02-19T14:47:30.184Z,16.30
2023-02-19T14:50:17.617Z,16.24
2023-02-19T14:52:49.692Z,16.18
2023-02-19T14:55:37.866Z,16.19
2023-02-19T14:58:12.024Z,16.44
2023-02-19T15:00:42.143Z,16.20
2023-02-19T15:03:31.290Z,16.24
2023-02-19T15:06:06.019Z,16.08
2023-02-19T15:08:39.688Z,16.49
2023-02-19T15:11:18.945Z,16.14
2023-02-19T15:14:00.866Z,16.04
2023-02-19T15:16:30.358Z,16.10
2023-02-19T15:18:59.872Z,16.14
2023-02-19T15:21:30.274Z,16.04
2023-02-19T15:24:00.761Z,15.97
2023-02-19T15:26:37.105Z,15.95
2023-02-19T15:29:16.097Z,16.07
2023-02-19T15:31:49.293Z,15.96
2023-02-19T15:34:22.111Z,15.81
2023-02-19T15:36:52.839Z,15.91
2023-02-19T15:39:24.292Z,15.94
2023-02-19T15:41:55.331Z,15.94
2023-02-19T15:44:22.533Z,15.91
2023-02-19T15:46:57.620Z,15.92
2023-02-19T15:49:33.714Z,15.89
2023-02-19T15:52:07.912Z,15.79
2023-02-19T15:54:57.260Z,15.74
2023-02-19T15:57:34.906Z,15.78
2023-02-19T16:00:23.311Z,15.78
2023-02-19T16:02:50.823Z,15.71
2023-02-19T16:05:27.107Z,15.82
2023-02-19T16:08:25.852Z,15.89
2023-02-19T16:10:59.303Z,15.83
2023-02-19T16:13:28.917Z,15.63
2023-02-19T16:16:09.680Z,15.45
2023-02-19T16:18:49.500Z,15.64
2023-02-19T16:21:21.826Z,15.39
2023-02-19T16:24:09.431Z,15.34
2023-02-19T16:26:42.144Z,15.25
2023-02-19T16:29:24.041Z,15.51
2023-02-19T16:31:55.696Z,15.36
2023-02-19T16:34:46.365Z,15.21
2023-02-19T16:37:38.410Z,15.34
2023-02-19T16:40:49.974Z,15.24
2023-02-19T16:43:36.335Z,15.06
2023-02-19T16:46:11.678Z,15.25
2023-02-19T16:48:39.288Z,15.39
2023-02-19T16:51:09.134Z,15.18
2023-02-19T16:53:38.805Z,15.18
2023-02-19T16:56:13.501Z,14.92
2023-02-19T16:58:40.978Z,15.12
2023-02-19T17:01:08.663Z,14.93
2023-02-19T17:03:38.943Z,14.88
2023-02-19T17:06:09.018Z,14.92
2023-02-19T17:08:42.088Z,15.07
2023-02-19T17:11:23.104Z,14.93
2023-02-19T17:13:51.525Z,14.77
2023-02-19T17:16:23.443Z,14.68
2023-02-19T17:18:57.855Z,14.84
2023-02-19T17:21:34.747Z,14.66
2023-02-19T17:24:01.998Z,14.69
2023-02-19T17:26:37.607Z,14.63
2023-02-19T17:29:14.664Z,14.84
2023-02-19T17:31:42.062Z,14.61
2023-02-19T17:34:16.866Z,14.61
2023-02-19T17:36:48.161Z,14.61
2023-02-19T17:39:16.149Z,14.71
2023-02-19T17:41:49.636Z,14.76
2023-02-19T17:44:19.748Z,14.61
2023-02-19T17:46:47.726Z,14.55
2023-02-19T17:49:15.106Z,14.67
2023-02-19T17:51:42.542Z,14.52
2023-02-19T17:54:10.002Z,14.34
2023-02-19T17:56:37.328Z,14.48
2023-02-19T17:59:04.705Z,15.06
2023-02-19T18:01:31.991Z,14.57
2023-02-19T18:03:59.546Z,14.55
2023-02-19T18:06:27.075Z,14.52
2023-02-19T18:08:54.426Z,14.63
2023-02-19T18:11:22.717Z,14.36
2023-02-19T18:13:51.796Z,14.38
2023-02-19T18:16:21.730Z,14.39
2023-02-19T18:18:49.995Z,14.62
2023-02-19T18:21:18.323Z,14.26
2023-02-19T18:23:47.390Z,14.17
2023-02-19T18:26:23.982Z,14.17
2023-02-19T18:28:51.305Z,14.24
2023-02-19T18:31:18.727Z,14.12
2023-02-19T18:33:46.087Z,14.03
2023-02-19T18:36:13.361Z,13.81
2023-02-19T18:38:40.632Z,14.13
2023-02-19T18:41:11.908Z,13.98
2023-02-19T18:43:41.417Z,13.83
2023-02-19T18:46:10.067Z,13.76
2023-02-19T18:48:37.846Z,13.98
2023-02-19T18:51:08.887Z,13.86
2023-02-19T18:53:36.496Z,13.66
2023-02-19T18:56:04.181Z,13.78
2023-02-19T18:58:31.741Z,13.98
2023-02-19T19:01:01.303Z,13.94
2023-02-19T19:03:30.271Z,13.73
2023-02-19T19:05:57.767Z,13.66
2023-02-19T19:08:30.389Z,13.78
2023-02-19T19:10:58.288Z,13.89
2023-02-19T19:13:28.110Z,13.63
2023-02-19T19:15:55.372Z,13.51
2023-02-19T19:18:22.905Z,13.70
2023-02-19T19:20:50.215Z,13.59
2023-02-19T19:23:17.522Z,13.65
2023-02-19T19:25:44.749Z,13.43
2023-02-19T19:28:11.957Z,13.45
2023-02-19T19:30:41.927Z,13.60
2023-02-19T19:33:09.381Z,13.43
2023-02-19T19:35:36.693Z,13.44
2023-02-19T19:38:04.285Z,13.40
2023-02-19T19:40:31.562Z,13.45
2023-02-19T19:42:58.803Z,13.58
2023-02-19T19:45:26.434Z,13.43
2023-02-19T19:47:53.729Z,13.13
2023-02-19T19:50:21.111Z,13.22
2023-02-19T19:52:48.532Z,13.19
2023-02-19T19:55:15.867Z,13.28
2023-02-19T19:57:43.173Z,13.17
2023-02-19T20:00:14.696Z,13.37
2023-02-19T20:02:42.010Z,13.28
2023-02-19T20:05:09.621Z,13.20
2023-02-19T20:07:36.858Z,13.06
2023-02-19T20:10:04.888Z,13.27
2023-02-19T20:12:32.578Z,13.14
2023-02-19T20:14:59.953Z,13.22
2023-02-19T20:17:27.277Z,12.94
2023-02-19T20:19:54.698Z,13.09
2023-02-19T20:22:21.913Z,13.07
2023-02-19T20:24:53.224Z,12.89
2023-02-19T20:27:22.941Z,12.78
2023-02-19T20:29:51.382Z,12.86
2023-02-19T20:32:18.705Z,12.64
2023-02-19T20:34:46.673Z,12.56
2023-02-19T20:37:14.691Z,12.34
2023-02-19T20:39:42.101Z,12.46
2023-02-19T20:42:09.374Z,12.52
2023-02-19T20:44:36.687Z,12.46
2023-02-19T20:47:04.453Z,12.34
2023-02-19T20:49:33.879Z,12.60
2023-02-19T20:52:05.182Z,12.53
2023-02-19T20:54:33.068Z,12.42
2023-02-19T20:57:02.369Z,12.20
2023-02-19T20:59:31.578Z,12.34
2023-02-19T21:01:59.112Z,12.32
2023-02-19T21:04:26.950Z,12.16
2023-02-19T21:06:58.411Z,12.08
2023-02-19T21:09:26.645Z,12.13
2023-02-19T21:11:54.007Z,12.11
2023-02-19T21:14:21.560Z,12.22
2023-02-19T21:16:49.674Z,12.16
2023-02-19T21:19:17.009Z,12.16
2023-02-19T21:21:50.095Z,12.07
2023-02-19T21:24:17.770Z,11.87
2023-02-19T21:26:45.437Z,11.97
2023-02-19T21:29:21.122Z,11.90
2023-02-19T21:31:51.774Z,11.74
2023-02-19T21:34:24.394Z,11.58
2023-02-19T21:36:52.557Z,11.74
2023-02-19T21:39:22.963Z,11.66
2023-02-19T21:41:50.854Z,11.58
2023-02-19T21:44:19.095Z,11.53
2023-02-19T21:46:47.135Z,11.46
2023-02-19T21:49:14.658Z,11.58
2023-02-19T21:51:44.232Z,11.53
2023-02-19T21:54:17.673Z,11.58
2023-02-19T21:56:45.238Z,11.50
2023-02-19T21:59:12.873Z,11.89
2023-02-19T22:01:40.774Z,11.81
2023-02-19T22:04:09.957Z,11.80
2023-02-19T22:06:37.239Z,11.91
2023-02-19T22:09:04.704Z,11.83
2023-02-19T22:11:32.018Z,11.80
2023-02-19T22:14:00.361Z,11.78
2023-02-19T22:16:28.072Z,11.80
2023-02-19T22:18:57.621Z,11.73
2023-02-19T22:21:30.186Z,11.75
2023-02-19T22:23:58.323Z,11.65
2023-02-19T22:26:30.703Z,11.58
2023-02-19T22:28:58.860Z,11.60
2023-02-19T22:31:27.616Z,11.78
2023-02-19T22:33:56.435Z,11.57
2023-02-19T22:36:28.945Z,11.36
2023-02-19T22:38:56.786Z,11.56
2023-02-19T22:41:24.021Z,11.66
2023-02-19T22:43:55.064Z,11.63
2023-02-19T22:46:24.529Z,11.55
2023-02-19T22:48:51.842Z,11.64
2023-02-19T22:51:22.066Z,11.56
2023-02-19T22:53:52.344Z,11.52
2023-02-19T22:56:21.697Z,11.51
2023-02-19T22:58:49.507Z,11.61
2023-02-19T23:01:17.392Z,11.50
2023-02-19T23:03:50.315Z,11.29
2023-02-19T23:06:22.520Z,11.33
2023-02-19T23:08:50.045Z,11.42
2023-02-19T23:11:22.485Z,11.51
2023-02-19T23:13:49.907Z,11.37
2023-02-19T23:16:18.073Z,11.42
2023-02-19T23:18:47.836Z,11.36
2023-02-19T23:21:16.407Z,11.56
2023-02-19T23:23:45.686Z,11.47
2023-02-19T23:26:15.558Z,11.26
2023-02-19T23:28:44.437Z,11.32
2023-02-19T23:31:12.762Z,11.43
2023-02-19T23:33:40.353Z,11.29
2023-02-19T23:36:08.431Z,11.36
2023-02-19T23:38:36.616Z,11.18
2023-02-19T23:41:04.400Z,11.39
2023-02-19T23:43:31.656Z,11.12
2023-02-19T23:45:59.037Z,11.01
2023-02-19T23:48:26.317Z,11.06
2023-02-19T23:50:53.809Z,11.32
2023-02-19T23:53:21.163Z,11.07
2023-02-19T23:55:49.208Z,10.94
2023-02-19T23:58:16.656Z,11.03
